createdAt,value
2018-05-19T00:00:19.640Z,9.07
2018-05-19T00:02:47.033Z,9.10
2018-05-19T00:05:14.464Z,8.63
2018-05-19T00:07:41.889Z,7.70
2018-05-19T00:10:09.301Z,7.13
2018-05-19T00:12:36.706Z,7.73
2018-05-19T00:15:04.089Z,8.23
2018-05-19T00:17:31.516Z,7.07
2018-05-19T00:19:58.909Z,7.00
2018-05-19T00:22:26.411Z,6.60
2018-05-19T00:27:14.925Z,7.80
2018-05-19T00:29:42.318Z,6.87
2018-05-19T00:32:09.821Z,7.70
2018-05-19T00:34:37.220Z,7.30
2018-05-19T00:37:04.623Z,7.13
2018-05-19T00:39:32.021Z,8.13
2018-05-19T00:41:59.427Z,7.30
2018-05-19T00:44:26.830Z,7.80
2018-05-19T00:46:54.245Z,8.80
2018-05-19T00:49:21.696Z,7.33
2018-05-19T00:51:49.095Z,8.30
2018-05-19T00:54:16.491Z,8.97
2018-05-19T00:56:43.898Z,7.30
2018-05-19T00:59:11.328Z,7.37
2018-05-19T01:01:38.738Z,7.40
2018-05-19T01:04:06.129Z,7.87
2018-05-19T01:06:33.592Z,6.90
2018-05-19T01:09:00.990Z,7.63
2018-05-19T01:11:29.461Z,6.70
2018-05-19T01:13:56.914Z,7.50
2018-05-19T01:16:24.325Z,6.20
2018-05-19T01:18:51.826Z,7.10
2018-05-19T01:21:20.301Z,7.80
2018-05-19T01:23:47.708Z,6.67
2018-05-19T01:26:15.136Z,6.60
2018-05-19T01:28:42.546Z,6.67
2018-05-19T01:31:09.933Z,7.90
2018-05-19T01:33:37.347Z,7.57
2018-05-19T01:36:04.801Z,7.17
2018-05-19T01:38:32.204Z,8.10
2018-05-19T01:40:59.604Z,6.03
2018-05-19T01:43:27.001Z,7.50
2018-05-19T01:45:54.405Z,7.40
2018-05-19T01:48:21.922Z,8.57
2018-05-19T01:50:49.305Z,7.60
2018-05-19T01:53:16.713Z,8.30
2018-05-19T01:55:44.188Z,7.70
2018-05-19T01:58:11.665Z,8.70
2018-05-19T02:00:39.082Z,8.97
2018-05-19T02:03:06.489Z,8.23
2018-05-19T02:05:33.915Z,7.47
2018-05-19T02:08:01.364Z,6.97
2018-05-19T02:10:28.760Z,8.10
2018-05-19T02:12:56.187Z,6.73
2018-05-19T02:15:23.582Z,8.50
2018-05-19T02:17:50.997Z,7.27
2018-05-19T02:20:18.453Z,6.97
2018-05-19T02:22:45.938Z,8.40
2018-05-19T02:25:13.361Z,8.43
2018-05-19T02:27:40.776Z,7.03
2018-05-19T02:30:08.194Z,7.97
2018-05-19T02:32:35.597Z,8.57
2018-05-19T02:35:02.986Z,8.47
2018-05-19T02:37:30.449Z,8.77
2018-05-19T02:39:57.857Z,8.40
2018-05-19T02:42:26.257Z,8.50
2018-05-19T02:44:53.650Z,9.03
2018-05-19T02:47:21.054Z,9.23
2018-05-19T02:49:48.447Z,8.90
2018-05-19T02:52:15.895Z,8.80
2018-05-19T02:54:43.318Z,10.13
2018-05-19T02:57:10.833Z,8.83
2018-05-19T02:59:38.224Z,8.43
2018-05-19T03:02:05.628Z,8.70
2018-05-19T03:04:33.023Z,10.13
2018-05-19T03:07:00.482Z,7.57
2018-05-19T03:09:27.895Z,8.10
2018-05-19T03:11:55.304Z,8.93
2018-05-19T03:14:22.700Z,8.13
2018-05-19T03:16:50.106Z,9.23
2018-05-19T03:19:17.496Z,9.53
2018-05-19T03:21:44.894Z,8.20
2018-05-19T03:24:12.307Z,10.73
2018-05-19T03:26:39.727Z,8.87
2018-05-19T03:29:07.137Z,8.90
2018-05-19T03:31:34.543Z,10.23
2018-05-19T03:34:01.955Z,9.60
2018-05-19T03:36:29.350Z,9.00
2018-05-19T03:38:56.757Z,9.53
2018-05-19T03:41:24.230Z,10.00
2018-05-19T03:43:51.653Z,8.90
2018-05-19T03:46:19.051Z,10.77
2018-05-19T03:48:46.501Z,10.63
2018-05-19T03:51:13.959Z,9.97
2018-05-19T03:53:41.390Z,10.73
2018-05-19T03:56:08.849Z,8.90
2018-05-19T03:58:48.137Z,9.70
2018-05-19T04:01:27.319Z,9.10
2018-05-19T04:03:54.739Z,8.13
2018-05-19T04:06:22.260Z,9.87
2018-05-19T04:08:49.685Z,8.73
2018-05-19T04:11:17.080Z,10.27
2018-05-19T04:13:44.498Z,8.90
2018-05-19T04:16:11.889Z,9.20
2018-05-19T04:18:39.333Z,8.83
2018-05-19T04:21:06.713Z,9.27
2018-05-19T04:23:34.133Z,10.40
2018-05-19T04:26:01.548Z,8.77
2018-05-19T04:28:28.958Z,10.30
2018-05-19T04:30:56.414Z,11.00
2018-05-19T04:33:24.414Z,10.20
2018-05-19T04:35:51.829Z,10.43
2018-05-19T04:38:19.264Z,9.23
2018-05-19T04:40:46.673Z,9.67
2018-05-19T04:45:40.465Z,10.10
2018-05-19T04:48:07.886Z,10.03
2018-05-19T04:50:35.342Z,10.27
2018-05-19T04:53:02.746Z,9.47
2018-05-19T04:55:30.149Z,10.10
2018-05-19T04:57:57.574Z,9.20
2018-05-19T05:00:24.969Z,10.10
2018-05-19T05:02:52.460Z,11.17
2018-05-19T05:05:19.921Z,10.60
2018-05-19T05:07:47.322Z,10.53
2018-05-19T05:10:14.716Z,10.07
2018-05-19T05:12:43.105Z,11.27
2018-05-19T05:15:10.497Z,11.43
2018-05-19T05:17:37.908Z,10.33
2018-05-19T05:20:05.371Z,10.40
2018-05-19T05:22:32.770Z,11.33
2018-05-19T05:25:00.189Z,11.57
2018-05-19T05:27:27.637Z,13.57
2018-05-19T05:29:55.038Z,11.60
2018-05-19T05:32:22.465Z,11.60
2018-05-19T05:34:49.912Z,12.40
2018-05-19T05:37:17.325Z,12.77
2018-05-19T05:39:44.873Z,11.50
2018-05-19T05:42:12.289Z,12.23
2018-05-19T05:44:39.769Z,12.87
2018-05-19T05:47:07.294Z,12.57
2018-05-19T05:49:34.755Z,12.27
2018-05-19T05:52:02.204Z,11.00
2018-05-19T05:54:29.613Z,11.90
2018-05-19T05:56:57.043Z,10.70
2018-05-19T05:59:24.470Z,12.10
2018-05-19T06:01:51.875Z,11.40
2018-05-19T06:04:19.309Z,10.40
2018-05-19T06:06:46.709Z,10.73
2018-05-19T06:09:14.181Z,11.67
2018-05-19T06:11:41.581Z,10.90
2018-05-19T06:14:08.994Z,11.97
2018-05-19T06:16:36.436Z,9.30
2018-05-19T06:19:03.820Z,9.07
2018-05-19T06:21:31.236Z,9.87
2018-05-19T06:23:58.664Z,9.57
2018-05-19T06:26:26.109Z,8.63
2018-05-19T06:28:53.556Z,9.97
2018-05-19T06:31:20.965Z,10.43
2018-05-19T06:33:48.365Z,9.50
2018-05-19T06:36:15.775Z,10.07
2018-05-19T06:38:43.172Z,8.97
2018-05-19T06:41:11.493Z,9.80
2018-05-19T06:43:38.901Z,10.20
2018-05-19T06:46:06.426Z,11.10
2018-05-19T06:48:33.826Z,9.80
2018-05-19T06:51:01.225Z,9.30
2018-05-19T06:53:28.697Z,9.73
2018-05-19T06:55:59.103Z,8.53
2018-05-19T06:58:27.038Z,10.10
2018-05-19T07:00:54.693Z,8.87
2018-05-19T07:03:22.426Z,10.00
2018-05-19T07:05:49.931Z,9.43
2018-05-19T07:08:19.482Z,8.60
2018-05-19T07:10:47.008Z,9.20
2018-05-19T07:13:14.455Z,10.43
2018-05-19T07:15:41.879Z,9.77
2018-05-19T07:18:14.369Z,8.53
2018-05-19T07:20:42.514Z,9.40
2018-05-19T07:23:09.918Z,8.90
2018-05-19T07:25:37.743Z,9.90
2018-05-19T07:28:05.179Z,9.20
2018-05-19T07:30:32.589Z,9.87
2018-05-19T07:33:00.125Z,9.50
2018-05-19T07:35:27.590Z,9.20
2018-05-19T07:37:54.981Z,8.63
2018-05-19T07:40:22.387Z,8.47
2018-05-19T07:42:49.838Z,9.60
2018-05-19T07:45:17.277Z,8.60
2018-05-19T07:47:44.705Z,8.20
2018-05-19T07:50:12.195Z,8.67
2018-05-19T07:52:39.586Z,8.00
2018-05-19T07:55:07.019Z,8.80
2018-05-19T07:57:34.438Z,9.50
2018-05-19T08:00:01.927Z,9.30
2018-05-19T08:02:29.312Z,8.50
2018-05-19T08:04:56.724Z,9.87
2018-05-19T08:07:24.194Z,9.43
2018-05-19T08:09:51.660Z,9.30
2018-05-19T08:12:19.045Z,9.00
2018-05-19T08:14:46.462Z,10.40
2018-05-19T08:17:13.854Z,9.37
2018-05-19T08:19:44.381Z,8.90
2018-05-19T08:22:11.769Z,8.80
2018-05-19T08:24:39.190Z,10.17
2018-05-19T08:27:06.612Z,10.40
2018-05-19T08:29:34.016Z,10.57
2018-05-19T08:32:01.459Z,9.87
2018-05-19T08:34:28.916Z,9.17
2018-05-19T08:36:56.376Z,9.83
2018-05-19T08:39:23.846Z,9.63
2018-05-19T08:41:51.241Z,9.73
2018-05-19T08:44:18.647Z,9.00
2018-05-19T08:46:46.101Z,9.60
2018-05-19T08:49:13.567Z,8.97
2018-05-19T08:51:40.973Z,9.23
2018-05-19T08:54:08.413Z,10.10
2018-05-19T08:56:35.833Z,10.30
2018-05-19T08:59:03.332Z,7.90
2018-05-19T09:01:30.745Z,8.30
2018-05-19T09:03:58.137Z,8.60
2018-05-19T09:06:25.541Z,8.33
2018-05-19T09:08:53.924Z,8.30
2018-05-19T09:11:21.333Z,9.80
2018-05-19T09:13:48.741Z,8.77
2018-05-19T09:16:16.205Z,9.13
2018-05-19T09:18:43.882Z,8.40
2018-05-19T09:21:11.306Z,10.37
2018-05-19T09:23:38.698Z,10.13
2018-05-19T09:26:06.098Z,9.27
2018-05-19T09:28:33.595Z,9.40
2018-05-19T09:31:01.001Z,9.27
2018-05-19T09:33:28.393Z,9.40
2018-05-19T09:35:55.902Z,9.60
2018-05-19T09:38:23.333Z,9.57
2018-05-19T09:40:50.730Z,9.20
2018-05-19T09:43:18.117Z,9.87
2018-05-19T09:45:45.609Z,9.97
2018-05-19T09:48:13.034Z,10.73
2018-05-19T09:50:40.446Z,10.70
2018-05-19T09:53:07.951Z,13.13
2018-05-19T09:55:35.297Z,10.90
2018-05-19T09:58:02.790Z,11.23
2018-05-19T10:00:30.206Z,11.83
2018-05-19T10:02:57.593Z,11.33
2018-05-19T10:05:25.054Z,11.43
2018-05-19T10:07:52.471Z,12.93
2018-05-19T10:10:19.872Z,11.40
2018-05-19T10:12:47.289Z,11.63
2018-05-19T10:15:14.697Z,11.27
2018-05-19T10:17:42.119Z,11.40
2018-05-19T10:20:09.513Z,11.67
2018-05-19T10:22:36.906Z,9.87
2018-05-19T10:25:04.401Z,11.17
2018-05-19T10:27:31.796Z,12.07
2018-05-19T10:29:59.232Z,12.00
2018-05-19T10:32:26.686Z,10.70
2018-05-19T10:34:54.119Z,11.27
2018-05-19T10:37:21.541Z,10.50
2018-05-19T10:39:49.092Z,10.37
2018-05-19T10:42:16.525Z,11.50
2018-05-19T10:44:43.953Z,10.77
2018-05-19T10:47:11.365Z,11.40
2018-05-19T10:49:38.879Z,10.20
2018-05-19T10:52:06.270Z,11.40
2018-05-19T10:54:33.721Z,11.50
2018-05-19T10:57:01.144Z,10.77
2018-05-19T10:59:28.541Z,10.33
2018-05-19T11:01:55.947Z,10.30
2018-05-19T11:04:23.342Z,10.57
2018-05-19T11:06:50.768Z,9.47
2018-05-19T11:09:18.169Z,11.40
2018-05-19T11:11:45.685Z,10.27
2018-05-19T11:14:13.102Z,8.93
2018-05-19T11:16:40.489Z,10.60
2018-05-19T11:19:07.901Z,9.67
2018-05-19T11:21:35.319Z,10.27
2018-05-19T11:24:02.776Z,10.73
2018-05-19T11:26:30.180Z,10.07
2018-05-19T11:28:57.584Z,10.77
2018-05-19T11:31:24.985Z,10.50
2018-05-19T11:33:52.385Z,11.67
2018-05-19T11:36:19.804Z,10.30
2018-05-19T11:38:47.185Z,9.60
2018-05-19T11:41:14.592Z,10.40
2018-05-19T11:43:42.008Z,9.80
2018-05-19T11:46:09.421Z,10.00
2018-05-19T11:48:36.813Z,11.50
2018-05-19T11:51:04.264Z,10.90
2018-05-19T11:53:31.652Z,9.87
2018-05-19T11:55:59.145Z,11.80
2018-05-19T11:58:26.577Z,12.37
2018-05-19T12:00:53.990Z,11.33
2018-05-19T12:03:21.473Z,12.27
2018-05-19T12:05:48.807Z,11.57
2018-05-19T12:08:16.205Z,10.67
2018-05-19T12:10:43.656Z,13.80
2018-05-19T12:13:11.124Z,11.20
2018-05-19T12:15:38.539Z,10.80
2018-05-19T12:18:06.026Z,12.23
2018-05-19T12:20:33.482Z,9.90
2018-05-19T12:23:00.935Z,11.90
2018-05-19T12:25:28.821Z,12.07
2018-05-19T12:27:56.270Z,10.07
2018-05-19T12:30:23.729Z,10.07
2018-05-19T12:32:51.131Z,10.70
2018-05-19T12:35:18.541Z,11.30
2018-05-19T12:37:45.933Z,10.50
2018-05-19T12:40:13.344Z,10.57
2018-05-19T12:42:40.802Z,11.50
2018-05-19T12:45:08.210Z,10.20
2018-05-19T12:47:35.627Z,11.80
2018-05-19T12:50:03.046Z,11.03
2018-05-19T12:52:30.477Z,11.23
2018-05-19T12:54:57.981Z,10.97
2018-05-19T12:57:25.418Z,10.20
2018-05-19T12:59:52.925Z,11.43
2018-05-19T13:02:20.329Z,11.00
2018-05-19T13:04:47.781Z,12.20
2018-05-19T13:07:15.173Z,10.30
2018-05-19T13:09:42.651Z,11.20
2018-05-19T13:12:10.057Z,12.10
2018-05-19T13:14:37.464Z,11.40
2018-05-19T13:17:05.212Z,11.00
2018-05-19T13:19:32.618Z,11.27
2018-05-19T13:22:00.139Z,10.60
2018-05-19T13:24:27.528Z,11.63
2018-05-19T13:26:54.938Z,10.30
2018-05-19T13:29:22.339Z,11.10
2018-05-19T13:31:49.740Z,10.20
2018-05-19T13:34:17.231Z,11.43
2018-05-19T13:36:44.637Z,10.80
2018-05-19T13:39:12.037Z,11.77
2018-05-19T13:41:39.470Z,11.27
2018-05-19T13:44:06.869Z,11.43
2018-05-19T13:46:34.273Z,11.23
2018-05-19T13:49:01.686Z,10.30
2018-05-19T13:51:29.109Z,10.93
2018-05-19T13:53:56.529Z,10.10
2018-05-19T13:56:24.002Z,10.53
2018-05-19T13:58:51.399Z,9.90
2018-05-19T14:01:18.808Z,10.13
2018-05-19T14:03:46.273Z,10.13
2018-05-19T14:06:14.621Z,10.03
2018-05-19T14:08:42.116Z,9.50
2018-05-19T14:11:09.580Z,10.07
2018-05-19T14:13:36.966Z,9.00
2018-05-19T14:16:04.368Z,10.27
2018-05-19T14:18:31.764Z,9.70
2018-05-19T14:20:59.185Z,9.83
2018-05-19T14:23:26.646Z,9.83
2018-05-19T14:25:54.123Z,11.27
2018-05-19T14:28:21.649Z,8.70
2018-05-19T14:30:49.074Z,8.17
2018-05-19T14:33:16.510Z,11.00
2018-05-19T14:35:43.938Z,9.90
2018-05-19T14:38:11.348Z,8.27
2018-05-19T14:40:38.771Z,8.57
2018-05-19T14:43:06.173Z,8.50
2018-05-19T14:45:33.574Z,9.23
2018-05-19T14:48:01.017Z,8.10
2018-05-19T14:50:28.436Z,8.03
2018-05-19T14:52:55.865Z,8.70
2018-05-19T14:55:23.345Z,9.13
2018-05-19T14:57:50.765Z,9.30
2018-05-19T15:00:18.285Z,8.70
2018-05-19T15:02:45.756Z,9.20
2018-05-19T15:05:13.192Z,8.97
2018-05-19T15:07:40.612Z,9.33
2018-05-19T15:10:08.095Z,9.27
2018-05-19T15:12:35.549Z,8.40
2018-05-19T15:15:02.997Z,9.73
2018-05-19T15:17:30.475Z,8.37
2018-05-19T15:19:57.865Z,8.80
2018-05-19T15:22:25.272Z,8.90
2018-05-19T15:24:52.670Z,9.50
2018-05-19T15:27:20.084Z,7.77
2018-05-19T15:29:47.610Z,8.77
2018-05-19T15:32:15.053Z,8.90
2018-05-19T15:34:42.456Z,9.10
2018-05-19T15:37:09.974Z,8.87
2018-05-19T15:39:37.377Z,8.40
2018-05-19T15:42:04.789Z,8.90
2018-05-19T15:44:32.252Z,9.87
2018-05-19T15:46:59.709Z,9.37
2018-05-19T15:49:27.105Z,8.07
2018-05-19T15:51:54.527Z,8.47
2018-05-19T15:54:21.976Z,9.03
2018-05-19T15:56:49.378Z,8.50
2018-05-19T15:59:16.791Z,9.80
2018-05-19T16:01:44.194Z,8.60
2018-05-19T16:04:11.627Z,8.80
2018-05-19T16:06:39.023Z,8.90
2018-05-19T16:09:06.418Z,8.80
2018-05-19T16:11:33.889Z,9.73
2018-05-19T16:14:01.326Z,9.30
2018-05-19T16:16:28.726Z,8.33
2018-05-19T16:18:56.141Z,9.23
2018-05-19T16:21:23.619Z,7.53
2018-05-19T16:23:51.072Z,8.57
2018-05-19T16:26:18.514Z,7.87
2018-05-19T16:28:45.957Z,7.80
2018-05-19T16:31:13.348Z,7.90
2018-05-19T16:33:40.785Z,8.60
2018-05-19T16:36:08.185Z,8.67
2018-05-19T16:38:35.589Z,7.13
2018-05-19T16:41:03.017Z,7.53
2018-05-19T16:43:30.418Z,8.80
2018-05-19T16:45:57.834Z,8.50
2018-05-19T16:48:25.289Z,7.73
2018-05-19T16:50:52.624Z,7.83
2018-05-19T16:53:20.026Z,8.10
2018-05-19T16:55:47.495Z,8.30
2018-05-19T16:58:14.983Z,7.97
2018-05-19T17:00:42.376Z,8.30
2018-05-19T17:03:09.856Z,26.33
2018-05-19T17:05:37.258Z,9.80
2018-05-19T17:08:04.735Z,55.40
2018-05-19T17:10:32.161Z,37.93
2018-05-19T17:12:59.577Z,101.47
2018-05-19T17:15:27.047Z,19.10
2018-05-19T17:17:54.460Z,11.20
2018-05-19T17:20:21.970Z,10.17
2018-05-19T17:22:49.423Z,8.43
2018-05-19T17:25:16.812Z,7.40
2018-05-19T17:27:44.234Z,8.33
2018-05-19T17:30:11.645Z,7.13
2018-05-19T17:32:39.063Z,7.27
2018-05-19T17:35:06.467Z,6.57
2018-05-19T17:37:33.868Z,8.00
2018-05-19T17:40:01.328Z,7.50
2018-05-19T17:42:28.742Z,8.43
2018-05-19T17:44:56.148Z,8.80
2018-05-19T17:47:23.538Z,7.20
2018-05-19T17:49:51.923Z,8.07
2018-05-19T17:54:55.433Z,8.57
2018-05-19T17:57:22.844Z,7.67
2018-05-19T17:59:50.268Z,9.23
2018-05-19T18:02:17.642Z,7.83
2018-05-19T18:04:45.171Z,8.50
2018-05-19T18:07:12.534Z,7.73
2018-05-19T18:09:39.942Z,7.90
2018-05-19T18:12:07.505Z,7.90
2018-05-19T18:14:34.897Z,8.43
2018-05-19T18:17:02.371Z,7.30
2018-05-19T18:19:29.758Z,8.20
2018-05-19T18:21:57.213Z,7.93
2018-05-19T18:24:24.615Z,9.20
2018-05-19T18:26:52.014Z,9.17
2018-05-19T18:29:19.563Z,9.40
2018-05-19T18:31:46.954Z,9.02
2018-05-19T18:34:14.425Z,10.03
2018-05-19T18:36:41.813Z,8.73
2018-05-19T18:39:09.309Z,10.10
2018-05-19T18:41:36.723Z,9.50
2018-05-19T18:44:04.117Z,9.33
2018-05-19T18:46:31.525Z,9.70
2018-05-19T18:48:59.033Z,9.80
2018-05-19T18:51:26.494Z,8.63
2018-05-19T18:53:53.933Z,10.00
2018-05-19T18:56:21.421Z,9.63
2018-05-19T18:58:48.840Z,8.80
2018-05-19T19:01:16.321Z,9.60
2018-05-19T19:03:43.788Z,8.27
2018-05-19T19:06:11.241Z,10.67
2018-05-19T19:08:38.702Z,10.27
2018-05-19T19:11:06.097Z,11.17
2018-05-19T19:13:33.518Z,10.03
2018-05-19T19:16:00.913Z,10.07
2018-05-19T19:18:28.342Z,11.10
2018-05-19T19:20:55.729Z,9.43
2018-05-19T19:23:23.129Z,10.87
2018-05-19T19:25:50.573Z,10.73
2018-05-19T19:28:18.034Z,10.27
2018-05-19T19:30:45.453Z,10.10
2018-05-19T19:33:13.058Z,9.70
2018-05-19T19:35:40.468Z,10.20
2018-05-19T19:38:07.943Z,9.70
2018-05-19T19:40:35.355Z,10.67
2018-05-19T19:43:02.780Z,11.00
2018-05-19T19:45:30.179Z,10.53
2018-05-19T19:47:57.688Z,9.67
2018-05-19T19:50:25.143Z,8.93
2018-05-19T19:52:52.631Z,10.30
2018-05-19T19:55:20.035Z,10.50
2018-05-19T19:57:47.449Z,9.60
2018-05-19T20:00:14.838Z,9.97
2018-05-19T20:02:42.245Z,10.37
2018-05-19T20:05:09.646Z,9.70
2018-05-19T20:07:37.195Z,10.20
2018-05-19T20:10:04.545Z,10.10
2018-05-19T20:12:31.971Z,10.40
2018-05-19T20:14:59.349Z,9.97
2018-05-19T20:17:26.760Z,9.63
2018-05-19T20:19:54.385Z,11.10
2018-05-19T20:22:21.855Z,10.57
2018-05-19T20:24:49.268Z,10.80
2018-05-19T20:27:16.682Z,10.10
2018-05-19T20:29:44.100Z,10.00
2018-05-19T20:32:11.502Z,9.67
2018-05-19T20:34:38.912Z,11.30
2018-05-19T20:37:06.302Z,11.10
2018-05-19T20:39:33.740Z,11.10
2018-05-19T20:42:01.160Z,11.80
2018-05-19T20:44:28.561Z,11.30
2018-05-19T20:46:55.957Z,11.67
2018-05-19T20:49:23.429Z,11.57
2018-05-19T20:51:50.889Z,11.10
2018-05-19T20:54:18.341Z,11.87
2018-05-19T20:56:45.797Z,11.93
2018-05-19T20:59:13.217Z,11.30
2018-05-19T21:01:40.646Z,12.77
2018-05-19T21:04:08.058Z,12.37
2018-05-19T21:06:35.473Z,12.90
2018-05-19T21:09:02.892Z,11.70
2018-05-19T21:11:30.292Z,10.60
2018-05-19T21:13:57.704Z,12.20
2018-05-19T21:16:25.105Z,12.37
2018-05-19T21:18:52.672Z,12.97
2018-05-19T21:21:20.061Z,12.67
2018-05-19T21:23:47.456Z,12.30
2018-05-19T21:26:14.899Z,11.87
2018-05-19T21:28:42.321Z,12.30
2018-05-19T21:31:09.737Z,13.00
2018-05-19T21:33:37.133Z,13.30
2018-05-19T21:36:04.714Z,13.90
2018-05-19T21:38:32.109Z,12.80
2018-05-19T21:40:59.521Z,13.47
2018-05-19T21:43:27.011Z,13.03
2018-05-19T21:45:54.376Z,13.57
2018-05-19T21:48:21.765Z,11.97
2018-05-19T21:50:49.291Z,13.07
2018-05-19T21:53:16.750Z,13.30
2018-05-19T21:55:44.193Z,13.00
2018-05-19T21:58:11.593Z,13.73
2018-05-19T22:00:45.877Z,11.87
2018-05-19T22:03:13.286Z,13.37
2018-05-19T22:05:40.684Z,13.77
2018-05-19T22:08:08.114Z,14.00
2018-05-19T22:10:35.519Z,14.10
2018-05-19T22:13:02.949Z,14.80
2018-05-19T22:15:30.369Z,13.50
2018-05-19T22:17:57.862Z,14.60
2018-05-19T22:20:25.269Z,15.80
2018-05-19T22:22:52.782Z,15.83
2018-05-19T22:25:20.242Z,16.80
2018-05-19T22:27:47.649Z,16.70
2018-05-19T22:30:15.070Z,17.40
2018-05-19T22:32:42.460Z,17.03
2018-05-19T22:35:09.905Z,19.10
2018-05-19T22:37:37.265Z,18.33
2018-05-19T22:40:04.673Z,21.17
2018-05-19T22:42:32.155Z,20.40
2018-05-19T22:44:59.566Z,19.10
2018-05-19T22:47:27.053Z,20.20
2018-05-19T22:49:54.469Z,20.63
2018-05-19T22:52:21.873Z,20.60
2018-05-19T22:54:49.334Z,23.00
2018-05-19T22:57:16.724Z,22.23
2018-05-19T22:59:44.404Z,22.83
2018-05-19T23:02:11.797Z,22.13
2018-05-19T23:04:39.315Z,24.57
2018-05-19T23:07:06.739Z,22.90
2018-05-19T23:09:34.233Z,24.17
2018-05-19T23:12:01.629Z,25.07
2018-05-19T23:14:29.046Z,26.83
2018-05-19T23:16:56.448Z,26.90
2018-05-19T23:19:23.875Z,26.13
2018-05-19T23:21:51.473Z,28.57
2018-05-19T23:24:18.978Z,27.27
2018-05-19T23:26:46.421Z,26.70
2018-05-19T23:29:13.844Z,28.40
2018-05-19T23:31:41.269Z,25.80
2018-05-19T23:34:08.700Z,27.30
2018-05-19T23:36:36.184Z,24.53
2018-05-19T23:39:04.509Z,22.40
2018-05-19T23:41:31.973Z,20.87
2018-05-19T23:43:59.410Z,19.20
2018-05-19T23:46:26.811Z,19.00
2018-05-19T23:48:54.237Z,16.87
2018-05-19T23:51:21.645Z,18.50
2018-05-19T23:53:49.104Z,20.00
2018-05-19T23:56:16.533Z,18.70
2018-05-19T23:58:43.950Z,17.07
